sensor_id;sensor_type;location;lat;lon;timestamp;P1;durP1;ratioP1;P2;durP2;ratioP2
69203;SDS011;56317;27.658;85.326;2022-08-14T00:00:23;9.27;;;6.03;;
69203;SDS011;56317;27.658;85.326;2022-08-14T00:02:50;7.78;;;4.97;;
69203;SDS011;56317;27.658;85.326;2022-08-14T00:05:19;7.18;;;4.55;;
69203;SDS011;56317;27.658;85.326;2022-08-14T00:07:47;8.27;;;5.05;;
69203;SDS011;56317;27.658;85.326;2022-08-14T00:10:17;9.18;;;4.95;;
69203;SDS011;56317;27.658;85.326;2022-08-14T00:12:47;8.32;;;5.32;;
69203;SDS011;56317;27.658;85.326;2022-08-14T00:15:22;10.80;;;5.28;;
69203;SDS011;56317;27.658;85.326;2022-08-14T00:17:51;7.28;;;5.13;;
69203;SDS011;56317;27.658;85.326;2022-08-14T00:20:21;8.07;;;5.00;;
69203;SDS011;56317;27.658;85.326;2022-08-14T00:22:50;8.88;;;5.05;;
69203;SDS011;56317;27.658;85.326;2022-08-14T00:25:18;8.77;;;5.40;;
69203;SDS011;56317;27.658;85.326;2022-08-14T00:27:45;10.30;;;6.63;;
69203;SDS011;56317;27.658;85.326;2022-08-14T00:30:13;8.70;;;5.45;;
69203;SDS011;56317;27.658;85.326;2022-08-14T00:32:41;9.07;;;6.07;;
69203;SDS011;56317;27.658;85.326;2022-08-14T00:35:08;9.40;;;5.45;;
69203;SDS011;56317;27.658;85.326;2022-08-14T00:37:37;11.68;;;5.80;;
69203;SDS011;56317;27.658;85.326;2022-08-14T00:40:07;10.98;;;5.10;;
69203;SDS011;56317;27.658;85.326;2022-08-14T00:42:36;10.50;;;5.57;;
69203;SDS011;56317;27.658;85.326;2022-08-14T00:45:04;11.25;;;6.50;;
69203;SDS011;56317;27.658;85.326;2022-08-14T00:47:33;9.15;;;5.88;;
69203;SDS011;56317;27.658;85.326;2022-08-14T00:50:02;10.07;;;6.60;;
69203;SDS011;56317;27.658;85.326;2022-08-14T00:52:32;12.93;;;6.25;;
69203;SDS011;56317;27.658;85.326;2022-08-14T00:55:00;9.75;;;6.70;;
69203;SDS011;56317;27.658;85.326;2022-08-14T00:57:29;7.90;;;5.85;;
69203;SDS011;56317;27.658;85.326;2022-08-14T00:59:58;6.90;;;4.68;;
69203;SDS011;56317;27.658;85.326;2022-08-14T01:02:26;8.13;;;4.97;;
69203;SDS011;56317;27.658;85.326;2022-08-14T01:04:55;7.63;;;4.88;;
69203;SDS011;56317;27.658;85.326;2022-08-14T01:07:24;7.18;;;4.78;;
69203;SDS011;56317;27.658;85.326;2022-08-14T01:09:58;7.30;;;4.73;;
69203;SDS011;56317;27.658;85.326;2022-08-14T01:12:27;7.00;;;4.40;;
69203;SDS011;56317;27.658;85.326;2022-08-14T01:14:55;8.73;;;4.95;;
69203;SDS011;56317;27.658;85.326;2022-08-14T01:17:25;8.65;;;4.85;;
69203;SDS011;56317;27.658;85.326;2022-08-14T01:20:13;8.57;;;5.15;;
69203;SDS011;56317;27.658;85.326;2022-08-14T01:22:59;9.27;;;5.75;;
69203;SDS011;56317;27.658;85.326;2022-08-14T01:25:26;12.45;;;6.70;;
69203;SDS011;56317;27.658;85.326;2022-08-14T01:27:53;13.23;;;5.75;;
69203;SDS011;56317;27.658;85.326;2022-08-14T01:30:22;17.65;;;9.02;;
69203;SDS011;56317;27.658;85.326;2022-08-14T01:32:50;13.18;;;8.68;;
69203;SDS011;56317;27.658;85.326;2022-08-14T01:35:18;11.48;;;6.72;;
69203;SDS011;56317;27.658;85.326;2022-08-14T01:37:46;9.43;;;6.50;;
69203;SDS011;56317;27.658;85.326;2022-08-14T01:40:13;14.40;;;6.35;;
69203;SDS011;56317;27.658;85.326;2022-08-14T01:42:43;11.48;;;6.70;;
69203;SDS011;56317;27.658;85.326;2022-08-14T01:45:10;8.57;;;4.75;;
69203;SDS011;56317;27.658;85.326;2022-08-14T01:47:38;6.57;;;4.03;;
69203;SDS011;56317;27.658;85.326;2022-08-14T01:50:06;6.15;;;4.25;;
69203;SDS011;56317;27.658;85.326;2022-08-14T01:52:34;5.13;;;3.47;;
69203;SDS011;56317;27.658;85.326;2022-08-14T01:55:04;5.40;;;3.55;;
69203;SDS011;56317;27.658;85.326;2022-08-14T01:57:38;5.40;;;3.38;;
69203;SDS011;56317;27.658;85.326;2022-08-14T02:00:10;7.28;;;3.25;;
69203;SDS011;56317;27.658;85.326;2022-08-14T02:02:41;6.22;;;3.33;;
69203;SDS011;56317;27.658;85.326;2022-08-14T02:05:12;8.23;;;3.80;;
69203;SDS011;56317;27.658;85.326;2022-08-14T02:07:40;9.82;;;5.65;;
69203;SDS011;56317;27.658;85.326;2022-08-14T02:10:10;7.47;;;4.13;;
69203;SDS011;56317;27.658;85.326;2022-08-14T02:12:38;5.85;;;3.78;;
69203;SDS011;56317;27.658;85.326;2022-08-14T02:15:06;13.73;;;5.63;;
69203;SDS011;56317;27.658;85.326;2022-08-14T02:17:33;11.63;;;5.60;;
69203;SDS011;56317;27.658;85.326;2022-08-14T02:20:01;9.35;;;5.60;;
69203;SDS011;56317;27.658;85.326;2022-08-14T02:22:28;7.15;;;4.15;;
69203;SDS011;56317;27.658;85.326;2022-08-14T02:24:56;6.95;;;3.80;;
69203;SDS011;56317;27.658;85.326;2022-08-14T02:27:23;7.53;;;4.15;;
69203;SDS011;56317;27.658;85.326;2022-08-14T02:29:50;7.20;;;4.32;;
69203;SDS011;56317;27.658;85.326;2022-08-14T02:32:18;8.02;;;4.57;;
69203;SDS011;56317;27.658;85.326;2022-08-14T02:34:46;9.27;;;4.15;;
69203;SDS011;56317;27.658;85.326;2022-08-14T02:37:13;8.55;;;4.63;;
69203;SDS011;56317;27.658;85.326;2022-08-14T02:39:41;12.10;;;7.68;;
69203;SDS011;56317;27.658;85.326;2022-08-14T02:42:12;15.00;;;9.15;;
69203;SDS011;56317;27.658;85.326;2022-08-14T02:44:42;12.45;;;8.70;;
69203;SDS011;56317;27.658;85.326;2022-08-14T02:47:10;11.90;;;8.00;;
69203;SDS011;56317;27.658;85.326;2022-08-14T02:49:37;11.63;;;6.97;;
69203;SDS011;56317;27.658;85.326;2022-08-14T02:52:05;10.43;;;6.30;;
69203;SDS011;56317;27.658;85.326;2022-08-14T02:54:33;11.57;;;6.68;;
69203;SDS011;56317;27.658;85.326;2022-08-14T02:57:02;8.25;;;5.68;;
69203;SDS011;56317;27.658;85.326;2022-08-14T02:59:31;9.25;;;5.72;;
69203;SDS011;56317;27.658;85.326;2022-08-14T03:02:01;16.40;;;5.10;;
69203;SDS011;56317;27.658;85.326;2022-08-14T03:04:29;9.18;;;4.85;;
69203;SDS011;56317;27.658;85.326;2022-08-14T03:06:57;7.28;;;4.78;;
69203;SDS011;56317;27.658;85.326;2022-08-14T03:09:27;8.73;;;5.07;;
69203;SDS011;56317;27.658;85.326;2022-08-14T03:11:54;10.45;;;4.85;;
69203;SDS011;56317;27.658;85.326;2022-08-14T03:14:21;8.65;;;4.80;;
69203;SDS011;56317;27.658;85.326;2022-08-14T03:16:50;8.35;;;4.63;;
69203;SDS011;56317;27.658;85.326;2022-08-14T03:19:17;8.48;;;4.57;;
69203;SDS011;56317;27.658;85.326;2022-08-14T03:21:45;6.55;;;3.75;;
69203;SDS011;56317;27.658;85.326;2022-08-14T03:24:12;6.80;;;4.07;;
69203;SDS011;56317;27.658;85.326;2022-08-14T03:26:40;7.40;;;4.45;;
69203;SDS011;56317;27.658;85.326;2022-08-14T03:29:09;10.68;;;4.95;;
69203;SDS011;56317;27.658;85.326;2022-08-14T03:31:38;8.23;;;4.97;;
69203;SDS011;56317;27.658;85.326;2022-08-14T03:34:06;8.55;;;4.95;;
69203;SDS011;56317;27.658;85.326;2022-08-14T03:36:35;8.57;;;5.07;;
69203;SDS011;56317;27.658;85.326;2022-08-14T03:39:06;7.93;;;4.80;;
69203;SDS011;56317;27.658;85.326;2022-08-14T03:41:34;7.63;;;4.80;;
69203;SDS011;56317;27.658;85.326;2022-08-14T03:44:03;8.20;;;4.85;;
69203;SDS011;56317;27.658;85.326;2022-08-14T03:46:33;10.93;;;5.63;;
69203;SDS011;56317;27.658;85.326;2022-08-14T03:49:02;9.43;;;5.00;;
69203;SDS011;56317;27.658;85.326;2022-08-14T03:51:31;11.63;;;7.78;;
69203;SDS011;56317;27.658;85.326;2022-08-14T03:54:00;14.32;;;9.68;;
69203;SDS011;56317;27.658;85.326;2022-08-14T03:56:29;16.70;;;10.65;;
69203;SDS011;56317;27.658;85.326;2022-08-14T03:58:59;15.27;;;8.50;;
69203;SDS011;56317;27.658;85.326;2022-08-14T04:01:32;12.98;;;8.45;;
69203;SDS011;56317;27.658;85.326;2022-08-14T04:03:59;10.57;;;7.60;;
69203;SDS011;56317;27.658;85.326;2022-08-14T04:06:32;13.93;;;8.10;;
69203;SDS011;56317;27.658;85.326;2022-08-14T04:09:01;14.45;;;9.57;;
69203;SDS011;56317;27.658;85.326;2022-08-14T04:11:30;15.40;;;9.30;;
69203;SDS011;56317;27.658;85.326;2022-08-14T04:13:59;13.23;;;9.63;;
69203;SDS011;56317;27.658;85.326;2022-08-14T04:16:27;13.35;;;9.15;;
69203;SDS011;56317;27.658;85.326;2022-08-14T04:18:55;14.05;;;10.05;;
69203;SDS011;56317;27.658;85.326;2022-08-14T04:21:29;16.38;;;9.55;;
69203;SDS011;56317;27.658;85.326;2022-08-14T04:23:57;12.18;;;8.90;;
69203;SDS011;56317;27.658;85.326;2022-08-14T04:26:26;15.02;;;9.52;;
69203;SDS011;56317;27.658;85.326;2022-08-14T04:28:55;16.70;;;11.52;;
69203;SDS011;56317;27.658;85.326;2022-08-14T04:31:23;15.30;;;10.20;;
69203;SDS011;56317;27.658;85.326;2022-08-14T04:33:51;14.63;;;9.93;;
69203;SDS011;56317;27.658;85.326;2022-08-14T04:36:19;16.92;;;10.80;;
69203;SDS011;56317;27.658;85.326;2022-08-14T04:38:46;16.25;;;11.68;;
69203;SDS011;56317;27.658;85.326;2022-08-14T04:41:31;16.58;;;10.95;;
69203;SDS011;56317;27.658;85.326;2022-08-14T04:44:17;14.45;;;10.55;;
69203;SDS011;56317;27.658;85.326;2022-08-14T04:46:45;14.45;;;10.45;;
69203;SDS011;56317;27.658;85.326;2022-08-14T04:49:30;12.63;;;9.82;;
69203;SDS011;56317;27.658;85.326;2022-08-14T04:51:57;13.40;;;9.65;;
69203;SDS011;56317;27.658;85.326;2022-08-14T04:54:25;12.95;;;9.13;;
69203;SDS011;56317;27.658;85.326;2022-08-14T04:56:56;14.43;;;9.27;;
69203;SDS011;56317;27.658;85.326;2022-08-14T04:59:23;9.30;;;5.63;;
69203;SDS011;56317;27.658;85.326;2022-08-14T05:01:51;9.52;;;5.18;;
69203;SDS011;56317;27.658;85.326;2022-08-14T05:04:19;9.10;;;5.00;;
69203;SDS011;56317;27.658;85.326;2022-08-14T05:06:47;9.93;;;5.00;;
69203;SDS011;56317;27.658;85.326;2022-08-14T05:09:15;11.30;;;4.95;;
69203;SDS011;56317;27.658;85.326;2022-08-14T05:11:43;8.40;;;4.45;;
69203;SDS011;56317;27.658;85.326;2022-08-14T05:14:11;7.40;;;5.13;;
69203;SDS011;56317;27.658;85.326;2022-08-14T05:16:38;8.93;;;4.43;;
69203;SDS011;56317;27.658;85.326;2022-08-14T05:19:05;6.47;;;4.22;;
69203;SDS011;56317;27.658;85.326;2022-08-14T05:21:41;6.28;;;3.55;;
69203;SDS011;56317;27.658;85.326;2022-08-14T05:24:08;6.60;;;4.20;;
69203;SDS011;56317;27.658;85.326;2022-08-14T05:26:39;4.90;;;3.20;;
69203;SDS011;56317;27.658;85.326;2022-08-14T05:29:08;4.93;;;3.50;;
69203;SDS011;56317;27.658;85.326;2022-08-14T05:31:36;9.50;;;3.88;;
69203;SDS011;56317;27.658;85.326;2022-08-14T05:34:06;7.43;;;3.60;;
69203;SDS011;56317;27.658;85.326;2022-08-14T05:36:34;5.45;;;3.45;;
69203;SDS011;56317;27.658;85.326;2022-08-14T05:39:02;7.72;;;3.85;;
69203;SDS011;56317;27.658;85.326;2022-08-14T05:41:30;7.60;;;3.53;;
69203;SDS011;56317;27.658;85.326;2022-08-14T05:43:59;8.60;;;3.35;;
69203;SDS011;56317;27.658;85.326;2022-08-14T05:46:26;6.45;;;2.78;;
69203;SDS011;56317;27.658;85.326;2022-08-14T05:48:54;4.22;;;2.40;;
69203;SDS011;56317;27.658;85.326;2022-08-14T05:51:23;5.93;;;2.30;;
69203;SDS011;56317;27.658;85.326;2022-08-14T05:53:52;6.87;;;2.40;;
69203;SDS011;56317;27.658;85.326;2022-08-14T05:56:21;8.32;;;2.58;;
69203;SDS011;56317;27.658;85.326;2022-08-14T05:58:50;7.60;;;2.88;;
69203;SDS011;56317;27.658;85.326;2022-08-14T06:01:18;5.97;;;2.88;;
69203;SDS011;56317;27.658;85.326;2022-08-14T06:03:45;4.97;;;2.80;;
69203;SDS011;56317;27.658;85.326;2022-08-14T06:06:12;8.18;;;2.88;;
69203;SDS011;56317;27.658;85.326;2022-08-14T06:08:39;4.68;;;2.17;;
69203;SDS011;56317;27.658;85.326;2022-08-14T06:11:07;8.05;;;2.95;;
69203;SDS011;56317;27.658;85.326;2022-08-14T06:13:39;3.58;;;2.20;;
69203;SDS011;56317;27.658;85.326;2022-08-14T06:16:08;3.47;;;1.90;;
69203;SDS011;56317;27.658;85.326;2022-08-14T06:18:35;8.50;;;3.05;;
69203;SDS011;56317;27.658;85.326;2022-08-14T06:21:03;5.75;;;2.60;;
69203;SDS011;56317;27.658;85.326;2022-08-14T06:23:30;3.72;;;2.28;;
69203;SDS011;56317;27.658;85.326;2022-08-14T06:25:57;3.78;;;2.20;;
69203;SDS011;56317;27.658;85.326;2022-08-14T06:28:25;5.50;;;2.67;;
69203;SDS011;56317;27.658;85.326;2022-08-14T06:30:52;3.97;;;2.20;;
69203;SDS011;56317;27.658;85.326;2022-08-14T06:33:20;5.32;;;2.35;;
69203;SDS011;56317;27.658;85.326;2022-08-14T06:35:47;4.88;;;2.30;;
69203;SDS011;56317;27.658;85.326;2022-08-14T06:38:16;7.05;;;2.40;;
69203;SDS011;56317;27.658;85.326;2022-08-14T06:40:47;4.03;;;2.53;;
69203;SDS011;56317;27.658;85.326;2022-08-14T06:43:16;3.92;;;2.20;;
69203;SDS011;56317;27.658;85.326;2022-08-14T06:45:45;5.25;;;2.25;;
69203;SDS011;56317;27.658;85.326;2022-08-14T06:48:14;4.35;;;1.95;;
69203;SDS011;56317;27.658;85.326;2022-08-14T06:50:42;4.13;;;1.90;;
69203;SDS011;56317;27.658;85.326;2022-08-14T06:53:10;4.30;;;2.50;;
69203;SDS011;56317;27.658;85.326;2022-08-14T06:55:42;3.30;;;2.05;;
69203;SDS011;56317;27.658;85.326;2022-08-14T06:58:10;2.58;;;1.92;;
69203;SDS011;56317;27.658;85.326;2022-08-14T07:00:38;3.75;;;2.10;;
69203;SDS011;56317;27.658;85.326;2022-08-14T07:03:26;4.70;;;2.42;;
69203;SDS011;56317;27.658;85.326;2022-08-14T07:06:12;4.90;;;2.47;;
69203;SDS011;56317;27.658;85.326;2022-08-14T07:08:40;7.13;;;2.83;;
69203;SDS011;56317;27.658;85.326;2022-08-14T07:11:08;5.38;;;2.38;;
69203;SDS011;56317;27.658;85.326;2022-08-14T07:13:35;3.95;;;1.90;;
69203;SDS011;56317;27.658;85.326;2022-08-14T07:16:03;8.77;;;1.92;;
69203;SDS011;56317;27.658;85.326;2022-08-14T07:18:32;3.67;;;2.40;;
69203;SDS011;56317;27.658;85.326;2022-08-14T07:21:01;4.05;;;2.42;;
69203;SDS011;56317;27.658;85.326;2022-08-14T07:23:30;5.25;;;2.10;;
69203;SDS011;56317;27.658;85.326;2022-08-14T07:25:58;4.75;;;1.58;;
69203;SDS011;56317;27.658;85.326;2022-08-14T07:30:54;3.38;;;1.92;;
69203;SDS011;56317;27.658;85.326;2022-08-14T07:33:23;4.43;;;2.10;;
69203;SDS011;56317;27.658;85.326;2022-08-14T07:35:51;6.28;;;2.33;;
69203;SDS011;56317;27.658;85.326;2022-08-14T07:38:20;5.68;;;2.45;;
69203;SDS011;56317;27.658;85.326;2022-08-14T07:40:48;4.68;;;2.40;;
69203;SDS011;56317;27.658;85.326;2022-08-14T07:43:16;5.35;;;3.15;;
69203;SDS011;56317;27.658;85.326;2022-08-14T07:45:43;5.35;;;2.72;;
69203;SDS011;56317;27.658;85.326;2022-08-14T07:48:11;6.13;;;2.90;;
69203;SDS011;56317;27.658;85.326;2022-08-14T07:50:38;9.60;;;3.75;;
69203;SDS011;56317;27.658;85.326;2022-08-14T07:53:05;9.38;;;3.50;;
69203;SDS011;56317;27.658;85.326;2022-08-14T07:55:32;6.72;;;2.60;;
69203;SDS011;56317;27.658;85.326;2022-08-14T07:58:00;3.53;;;2.30;;
69203;SDS011;56317;27.658;85.326;2022-08-14T08:00:27;4.47;;;2.67;;
69203;SDS011;56317;27.658;85.326;2022-08-14T08:02:54;5.85;;;3.22;;
69203;SDS011;56317;27.658;85.326;2022-08-14T08:05:24;10.38;;;2.88;;
69203;SDS011;56317;27.658;85.326;2022-08-14T08:07:52;11.98;;;3.30;;
69203;SDS011;56317;27.658;85.326;2022-08-14T08:10:21;7.50;;;3.20;;
69203;SDS011;56317;27.658;85.326;2022-08-14T08:13:00;5.95;;;2.90;;
69203;SDS011;56317;27.658;85.326;2022-08-14T08:15:31;6.22;;;2.75;;
69203;SDS011;56317;27.658;85.326;2022-08-14T08:20:30;5.38;;;2.75;;
69203;SDS011;56317;27.658;85.326;2022-08-14T08:23:06;6.68;;;2.97;;
69203;SDS011;56317;27.658;85.326;2022-08-14T08:25:38;4.78;;;2.70;;
69203;SDS011;56317;27.658;85.326;2022-08-14T08:28:11;4.07;;;2.55;;
69203;SDS011;56317;27.658;85.326;2022-08-14T08:30:41;5.93;;;2.78;;
69203;SDS011;56317;27.658;85.326;2022-08-14T08:33:12;6.55;;;2.95;;
69203;SDS011;56317;27.658;85.326;2022-08-14T08:35:41;4.97;;;2.35;;
69203;SDS011;56317;27.658;85.326;2022-08-14T08:38:09;5.50;;;2.05;;
69203;SDS011;56317;27.658;85.326;2022-08-14T08:40:42;6.55;;;2.70;;
69203;SDS011;56317;27.658;85.326;2022-08-14T08:45:58;6.50;;;2.45;;
69203;SDS011;56317;27.658;85.326;2022-08-14T08:48:41;8.93;;;3.00;;
69203;SDS011;56317;27.658;85.326;2022-08-14T08:51:20;6.40;;;2.88;;
69203;SDS011;56317;27.658;85.326;2022-08-14T08:53:57;6.78;;;2.88;;
69203;SDS011;56317;27.658;85.326;2022-08-14T08:56:42;6.05;;;2.55;;
69203;SDS011;56317;27.658;85.326;2022-08-14T08:59:24;6.20;;;3.58;;
69203;SDS011;56317;27.658;85.326;2022-08-14T09:01:55;10.05;;;3.33;;
69203;SDS011;56317;27.658;85.326;2022-08-14T09:04:24;12.48;;;4.32;;
69203;SDS011;56317;27.658;85.326;2022-08-14T09:06:55;9.10;;;3.88;;
69203;SDS011;56317;27.658;85.326;2022-08-14T09:09:26;6.72;;;3.38;;
69203;SDS011;56317;27.658;85.326;2022-08-14T09:11:56;14.15;;;4.13;;
69203;SDS011;56317;27.658;85.326;2022-08-14T09:14:26;7.10;;;3.78;;
69203;SDS011;56317;27.658;85.326;2022-08-14T09:16:55;8.10;;;3.65;;
69203;SDS011;56317;27.658;85.326;2022-08-14T09:19:24;10.48;;;3.88;;
69203;SDS011;56317;27.658;85.326;2022-08-14T09:21:52;8.38;;;3.20;;
69203;SDS011;56317;27.658;85.326;2022-08-14T09:24:20;4.55;;;2.88;;
69203;SDS011;56317;27.658;85.326;2022-08-14T09:26:47;7.15;;;2.85;;
69203;SDS011;56317;27.658;85.326;2022-08-14T09:29:15;6.28;;;2.80;;
69203;SDS011;56317;27.658;85.326;2022-08-14T09:31:44;5.55;;;2.92;;
69203;SDS011;56317;27.658;85.326;2022-08-14T09:37:16;4.78;;;2.40;;
69203;SDS011;56317;27.658;85.326;2022-08-14T09:43:25;6.70;;;3.40;;
69203;SDS011;56317;27.658;85.326;2022-08-14T09:46:33;8.20;;;4.80;;
69203;SDS011;56317;27.658;85.326;2022-08-14T09:49:01;6.55;;;3.67;;
69203;SDS011;56317;27.658;85.326;2022-08-14T09:51:31;8.10;;;3.90;;
69203;SDS011;56317;27.658;85.326;2022-08-14T09:56:27;12.98;;;5.53;;
69203;SDS011;56317;27.658;85.326;2022-08-14T09:58:57;17.92;;;6.95;;
69203;SDS011;56317;27.658;85.326;2022-08-14T10:01:39;12.32;;;6.78;;
69203;SDS011;56317;27.658;85.326;2022-08-14T10:04:17;20.67;;;7.13;;
69203;SDS011;56317;27.658;85.326;2022-08-14T10:06:49;17.48;;;9.23;;
69203;SDS011;56317;27.658;85.326;2022-08-14T10:09:16;10.93;;;6.55;;
69203;SDS011;56317;27.658;85.326;2022-08-14T10:11:55;19.17;;;8.55;;
69203;SDS011;56317;27.658;85.326;2022-08-14T10:14:26;12.32;;;6.90;;
69203;SDS011;56317;27.658;85.326;2022-08-14T10:16:57;15.43;;;7.05;;
69203;SDS011;56317;27.658;85.326;2022-08-14T10:19:26;21.30;;;10.48;;
69203;SDS011;56317;27.658;85.326;2022-08-14T10:21:57;16.40;;;8.65;;
69203;SDS011;56317;27.658;85.326;2022-08-14T10:24:32;21.73;;;8.70;;
69203;SDS011;56317;27.658;85.326;2022-08-14T10:27:12;10.40;;;5.47;;
69203;SDS011;56317;27.658;85.326;2022-08-14T10:29:43;10.02;;;4.60;;
69203;SDS011;56317;27.658;85.326;2022-08-14T10:32:15;11.80;;;3.83;;
69203;SDS011;56317;27.658;85.326;2022-08-14T10:34:42;12.88;;;4.00;;
69203;SDS011;56317;27.658;85.326;2022-08-14T10:37:11;8.55;;;4.40;;
69203;SDS011;56317;27.658;85.326;2022-08-14T10:39:42;6.33;;;3.27;;
69203;SDS011;56317;27.658;85.326;2022-08-14T10:42:22;9.13;;;4.07;;
69203;SDS011;56317;27.658;85.326;2022-08-14T10:45:02;8.05;;;3.63;;
69203;SDS011;56317;27.658;85.326;2022-08-14T10:47:44;7.22;;;3.70;;
69203;SDS011;56317;27.658;85.326;2022-08-14T10:50:13;6.93;;;2.95;;
69203;SDS011;56317;27.658;85.326;2022-08-14T10:52:41;12.77;;;4.72;;
69203;SDS011;56317;27.658;85.326;2022-08-14T10:55:21;14.05;;;4.80;;
69203;SDS011;56317;27.658;85.326;2022-08-14T10:57:53;9.63;;;4.63;;
69203;SDS011;56317;27.658;85.326;2022-08-14T11:00:25;8.50;;;4.65;;
69203;SDS011;56317;27.658;85.326;2022-08-14T11:03:03;10.45;;;5.20;;
69203;SDS011;56317;27.658;85.326;2022-08-14T11:05:41;8.93;;;3.70;;
69203;SDS011;56317;27.658;85.326;2022-08-14T11:08:09;6.40;;;3.88;;
69203;SDS011;56317;27.658;85.326;2022-08-14T11:10:44;9.35;;;3.85;;
69203;SDS011;56317;27.658;85.326;2022-08-14T11:13:17;8.18;;;3.83;;
69203;SDS011;56317;27.658;85.326;2022-08-14T11:15:49;13.65;;;4.90;;
69203;SDS011;56317;27.658;85.326;2022-08-14T11:18:17;7.07;;;3.65;;
69203;SDS011;56317;27.658;85.326;2022-08-14T11:20:50;15.85;;;4.78;;
69203;SDS011;56317;27.658;85.326;2022-08-14T11:23:20;15.65;;;4.55;;
69203;SDS011;56317;27.658;85.326;2022-08-14T11:25:52;9.02;;;4.28;;
69203;SDS011;56317;27.658;85.326;2022-08-14T11:28:22;15.85;;;3.95;;
69203;SDS011;56317;27.658;85.326;2022-08-14T11:30:51;9.07;;;4.70;;
69203;SDS011;56317;27.658;85.326;2022-08-14T11:33:23;12.82;;;3.95;;
69203;SDS011;56317;27.658;85.326;2022-08-14T11:35:56;12.82;;;5.90;;
69203;SDS011;56317;27.658;85.326;2022-08-14T11:38:26;24.27;;;7.50;;
69203;SDS011;56317;27.658;85.326;2022-08-14T11:40:55;18.65;;;6.43;;
69203;SDS011;56317;27.658;85.326;2022-08-14T11:43:23;18.73;;;7.53;;
69203;SDS011;56317;27.658;85.326;2022-08-14T11:45:50;28.00;;;8.57;;
69203;SDS011;56317;27.658;85.326;2022-08-14T11:48:22;20.90;;;9.00;;
69203;SDS011;56317;27.658;85.326;2022-08-14T11:50:53;18.02;;;9.10;;
69203;SDS011;56317;27.658;85.326;2022-08-14T11:53:25;23.92;;;9.27;;
69203;SDS011;56317;27.658;85.326;2022-08-14T11:55:56;21.20;;;7.63;;
69203;SDS011;56317;27.658;85.326;2022-08-14T11:58:27;12.52;;;4.97;;
69203;SDS011;56317;27.658;85.326;2022-08-14T12:00:57;17.35;;;6.07;;
69203;SDS011;56317;27.658;85.326;2022-08-14T12:03:36;12.25;;;5.18;;
69203;SDS011;56317;27.658;85.326;2022-08-14T12:06:13;14.52;;;5.40;;
69203;SDS011;56317;27.658;85.326;2022-08-14T12:08:42;16.85;;;6.70;;
69203;SDS011;56317;27.658;85.326;2022-08-14T12:11:15;17.20;;;6.72;;
69203;SDS011;56317;27.658;85.326;2022-08-14T12:13:42;17.13;;;5.75;;
69203;SDS011;56317;27.658;85.326;2022-08-14T12:16:10;18.83;;;5.63;;
69203;SDS011;56317;27.658;85.326;2022-08-14T12:21:16;25.52;;;5.60;;
69203;SDS011;56317;27.658;85.326;2022-08-14T12:24:05;21.52;;;6.80;;
69203;SDS011;56317;27.658;85.326;2022-08-14T12:26:34;21.42;;;7.35;;
69203;SDS011;56317;27.658;85.326;2022-08-14T12:29:05;16.33;;;6.00;;
69203;SDS011;56317;27.658;85.326;2022-08-14T12:31:37;27.30;;;7.85;;
69203;SDS011;56317;27.658;85.326;2022-08-14T12:34:07;15.27;;;6.07;;
69203;SDS011;56317;27.658;85.326;2022-08-14T12:36:37;20.33;;;6.60;;
69203;SDS011;56317;27.658;85.326;2022-08-14T12:39:15;16.75;;;7.20;;
69203;SDS011;56317;27.658;85.326;2022-08-14T12:41:52;17.83;;;7.20;;
69203;SDS011;56317;27.658;85.326;2022-08-14T12:44:32;15.38;;;7.15;;
69203;SDS011;56317;27.658;85.326;2022-08-14T12:47:10;11.20;;;5.88;;
69203;SDS011;56317;27.658;85.326;2022-08-14T12:49:51;15.73;;;5.55;;
69203;SDS011;56317;27.658;85.326;2022-08-14T12:52:28;10.05;;;6.63;;
69203;SDS011;56317;27.658;85.326;2022-08-14T12:55:00;13.57;;;6.65;;
69203;SDS011;56317;27.658;85.326;2022-08-14T12:57:46;14.00;;;5.55;;
69203;SDS011;56317;27.658;85.326;2022-08-14T13:00:20;15.82;;;5.55;;
69203;SDS011;56317;27.658;85.326;2022-08-14T13:02:51;12.82;;;5.30;;
69203;SDS011;56317;27.658;85.326;2022-08-14T13:05:23;9.88;;;4.88;;
69203;SDS011;56317;27.658;85.326;2022-08-14T13:07:54;11.10;;;5.07;;
69203;SDS011;56317;27.658;85.326;2022-08-14T13:10:22;13.40;;;5.28;;
69203;SDS011;56317;27.658;85.326;2022-08-14T13:12:50;14.25;;;6.38;;
69203;SDS011;56317;27.658;85.326;2022-08-14T13:15:22;16.35;;;7.57;;
69203;SDS011;56317;27.658;85.326;2022-08-14T13:17:50;9.05;;;4.97;;
69203;SDS011;56317;27.658;85.326;2022-08-14T13:22:50;9.60;;;5.25;;
69203;SDS011;56317;27.658;85.326;2022-08-14T13:25:21;16.55;;;5.05;;
69203;SDS011;56317;27.658;85.326;2022-08-14T13:27:51;7.60;;;3.97;;
69203;SDS011;56317;27.658;85.326;2022-08-14T13:30:23;10.82;;;5.03;;
69203;SDS011;56317;27.658;85.326;2022-08-14T13:32:52;9.65;;;5.20;;
69203;SDS011;56317;27.658;85.326;2022-08-14T13:35:20;9.10;;;4.65;;
69203;SDS011;56317;27.658;85.326;2022-08-14T13:37:48;13.93;;;5.85;;
69203;SDS011;56317;27.658;85.326;2022-08-14T13:40:16;9.68;;;5.60;;
69203;SDS011;56317;27.658;85.326;2022-08-14T13:42:46;9.80;;;5.55;;
69203;SDS011;56317;27.658;85.326;2022-08-14T13:45:17;12.82;;;7.20;;
69203;SDS011;56317;27.658;85.326;2022-08-14T13:47:46;11.30;;;7.43;;
69203;SDS011;56317;27.658;85.326;2022-08-14T13:50:15;10.43;;;6.00;;
69203;SDS011;56317;27.658;85.326;2022-08-14T13:52:46;11.35;;;5.90;;
69203;SDS011;56317;27.658;85.326;2022-08-14T13:55:19;14.32;;;7.13;;
69203;SDS011;56317;27.658;85.326;2022-08-14T13:57:49;13.32;;;6.82;;
69203;SDS011;56317;27.658;85.326;2022-08-14T14:00:17;9.73;;;6.38;;
69203;SDS011;56317;27.658;85.326;2022-08-14T14:02:45;14.73;;;5.97;;
69203;SDS011;56317;27.658;85.326;2022-08-14T14:05:13;9.30;;;5.95;;
69203;SDS011;56317;27.658;85.326;2022-08-14T14:07:46;8.93;;;4.25;;
69203;SDS011;56317;27.658;85.326;2022-08-14T14:10:16;8.23;;;4.22;;
69203;SDS011;56317;27.658;85.326;2022-08-14T14:12:46;8.65;;;4.03;;
69203;SDS011;56317;27.658;85.326;2022-08-14T14:15:15;9.55;;;5.32;;
69203;SDS011;56317;27.658;85.326;2022-08-14T14:17:45;11.77;;;4.70;;
69203;SDS011;56317;27.658;85.326;2022-08-14T14:20:13;8.70;;;5.45;;
69203;SDS011;56317;27.658;85.326;2022-08-14T14:22:43;8.38;;;4.78;;
69203;SDS011;56317;27.658;85.326;2022-08-14T14:25:12;8.55;;;4.53;;
69203;SDS011;56317;27.658;85.326;2022-08-14T14:27:41;9.52;;;5.28;;
69203;SDS011;56317;27.658;85.326;2022-08-14T14:30:13;8.35;;;4.97;;
69203;SDS011;56317;27.658;85.326;2022-08-14T14:32:43;9.18;;;5.13;;
69203;SDS011;56317;27.658;85.326;2022-08-14T14:37:42;11.27;;;5.50;;
69203;SDS011;56317;27.658;85.326;2022-08-14T14:40:11;8.60;;;5.18;;
69203;SDS011;56317;27.658;85.326;2022-08-14T14:42:47;9.60;;;6.03;;
69203;SDS011;56317;27.658;85.326;2022-08-14T14:45:17;10.98;;;5.90;;
69203;SDS011;56317;27.658;85.326;2022-08-14T14:47:48;10.73;;;5.83;;
69203;SDS011;56317;27.658;85.326;2022-08-14T14:50:18;10.20;;;5.93;;
69203;SDS011;56317;27.658;85.326;2022-08-14T14:52:47;17.98;;;6.90;;
69203;SDS011;56317;27.658;85.326;2022-08-14T14:55:15;13.80;;;7.18;;
69203;SDS011;56317;27.658;85.326;2022-08-14T14:57:44;20.88;;;5.40;;
69203;SDS011;56317;27.658;85.326;2022-08-14T15:00:13;12.80;;;5.60;;
69203;SDS011;56317;27.658;85.326;2022-08-14T15:02:49;8.70;;;4.80;;
69203;SDS011;56317;27.658;85.326;2022-08-14T15:05:18;17.73;;;7.45;;
69203;SDS011;56317;27.658;85.326;2022-08-14T15:07:47;12.98;;;5.60;;
69203;SDS011;56317;27.658;85.326;2022-08-14T15:10:17;10.65;;;4.43;;